createdAt,value
2022-11-05T00:01:40.987Z,13.75
2022-11-05T00:04:30.906Z,14.80
2022-11-05T00:07:17.483Z,13.57
2022-11-05T00:09:45.120Z,13.20
2022-11-05T00:12:31.202Z,13.75
2022-11-05T00:15:17.355Z,13.50
2022-11-05T00:17:45.183Z,13.60
2022-11-05T00:20:13.877Z,12.00
2022-11-05T00:23:00.179Z,11.77
2022-11-05T00:25:30.063Z,12.52
2022-11-05T00:27:57.546Z,13.43
2022-11-05T00:30:28.023Z,11.73
2022-11-05T00:32:55.445Z,10.93
2022-11-05T00:35:22.952Z,11.63
2022-11-05T00:37:50.870Z,12.10
2022-11-05T00:40:18.335Z,12.02
2022-11-05T00:43:04.797Z,10.98
2022-11-05T00:45:32.217Z,11.68
2022-11-05T00:48:19.290Z,11.07
2022-11-05T00:50:46.874Z,12.10
2022-11-05T00:53:14.747Z,11.00
2022-11-05T00:55:42.426Z,10.98
2022-11-05T00:58:10.983Z,13.25
2022-11-05T01:00:38.427Z,12.32
2022-11-05T01:03:06.512Z,10.75
2022-11-05T01:05:38.263Z,10.68
2022-11-05T01:08:06.054Z,11.50
2022-11-05T01:10:33.652Z,9.90
2022-11-05T01:13:01.130Z,10.48
2022-11-05T01:15:29.267Z,10.15
2022-11-05T01:17:57.094Z,10.02
2022-11-05T01:20:24.733Z,10.73
2022-11-05T01:22:52.364Z,10.63
2022-11-05T01:25:24.080Z,8.80
2022-11-05T01:27:51.580Z,9.63
2022-11-05T01:30:19.237Z,9.75
2022-11-05T01:32:55.892Z,9.48
2022-11-05T01:35:24.289Z,9.85
2022-11-05T01:37:51.648Z,8.65
2022-11-05T01:40:19.246Z,8.15
2022-11-05T01:42:46.712Z,8.05
2022-11-05T01:45:16.704Z,8.27
2022-11-05T01:47:44.068Z,8.68
2022-11-05T01:50:11.531Z,8.80
2022-11-05T01:52:39.871Z,8.23
2022-11-05T01:55:07.180Z,8.13
2022-11-05T01:57:34.516Z,7.68
2022-11-05T02:00:03.712Z,7.45
2022-11-05T02:02:40.894Z,7.70
2022-11-05T02:05:10.878Z,7.05
2022-11-05T02:07:38.235Z,5.75
2022-11-05T02:10:05.826Z,6.63
2022-11-05T02:12:34.345Z,5.72
2022-11-05T02:15:04.088Z,6.40
2022-11-05T02:17:34.534Z,5.80
2022-11-05T02:20:03.212Z,5.95
2022-11-05T02:22:30.569Z,5.75
2022-11-05T02:24:58.187Z,6.13
2022-11-05T02:27:28.707Z,4.93
2022-11-05T02:29:56.681Z,4.65
2022-11-05T02:32:26.205Z,5.07
2022-11-05T02:34:53.839Z,4.80
2022-11-05T02:37:22.589Z,4.78
2022-11-05T02:39:50.396Z,4.82
2022-11-05T02:42:17.954Z,4.53
2022-11-05T02:44:45.608Z,4.53
2022-11-05T02:47:18.170Z,4.00
2022-11-05T02:49:46.431Z,3.95
2022-11-05T02:52:13.782Z,3.78
2022-11-05T02:54:41.278Z,3.97
2022-11-05T02:57:08.645Z,4.35
2022-11-05T02:59:36.379Z,4.25
2022-11-05T03:02:03.896Z,4.25
2022-11-05T03:04:32.540Z,3.97
2022-11-05T03:07:01.015Z,4.00
2022-11-05T03:09:28.988Z,4.43
2022-11-05T03:11:56.373Z,4.60
2022-11-05T03:14:23.825Z,4.85
2022-11-05T03:16:51.176Z,5.28
2022-11-05T03:19:18.851Z,5.63
2022-11-05T03:21:46.300Z,5.20
2022-11-05T03:24:14.059Z,5.35
2022-11-05T03:26:41.576Z,5.45
2022-11-05T03:29:09.268Z,5.90
2022-11-05T03:31:37.309Z,6.03
2022-11-05T03:34:04.817Z,5.57
2022-11-05T03:36:32.183Z,5.80
2022-11-05T03:38:59.854Z,5.03
2022-11-05T03:41:27.657Z,5.53
2022-11-05T03:43:55.088Z,6.55
2022-11-05T03:46:22.382Z,6.78
2022-11-05T03:48:49.949Z,4.90
2022-11-05T03:51:18.409Z,5.68
2022-11-05T03:53:45.941Z,5.60
2022-11-05T03:56:13.891Z,4.40
2022-11-05T03:58:41.336Z,5.00
2022-11-05T04:01:08.732Z,4.63
2022-11-05T04:03:39.616Z,4.70
2022-11-05T04:06:27.939Z,5.35
2022-11-05T04:09:14.219Z,4.90
2022-11-05T04:12:00.491Z,4.20
2022-11-05T04:14:27.971Z,5.00
2022-11-05T04:17:10.150Z,4.65
2022-11-05T04:19:56.475Z,5.07
2022-11-05T04:22:42.968Z,4.60
2022-11-05T04:25:11.430Z,3.97
2022-11-05T04:27:38.859Z,5.20
2022-11-05T04:30:18.688Z,4.50
2022-11-05T04:32:46.112Z,4.32
2022-11-05T04:35:13.448Z,4.18
2022-11-05T04:37:41.044Z,3.88
2022-11-05T04:40:08.584Z,3.35
2022-11-05T04:42:36.636Z,3.75
2022-11-05T04:45:04.331Z,3.45
2022-11-05T04:47:31.813Z,3.08
2022-11-05T04:49:59.215Z,3.28
2022-11-05T04:52:26.694Z,3.58
2022-11-05T04:54:54.151Z,2.90
2022-11-05T04:57:21.711Z,2.80
2022-11-05T04:59:50.953Z,3.17
2022-11-05T05:02:18.467Z,2.90
2022-11-05T05:04:46.011Z,3.60
2022-11-05T05:07:13.571Z,3.42
2022-11-05T05:09:41.017Z,2.67
2022-11-05T05:12:08.511Z,2.70
2022-11-05T05:14:35.935Z,2.53
2022-11-05T05:17:03.304Z,3.03
2022-11-05T05:19:30.572Z,2.88
2022-11-05T05:21:58.299Z,3.55
2022-11-05T05:24:25.860Z,2.50
2022-11-05T05:26:53.332Z,2.78
2022-11-05T05:29:20.578Z,3.08
2022-11-05T05:31:48.246Z,2.88
2022-11-05T05:34:15.750Z,2.90
2022-11-05T05:36:43.157Z,2.90
2022-11-05T05:39:11.196Z,2.65
2022-11-05T05:41:38.636Z,3.15
2022-11-05T05:44:06.106Z,2.90
2022-11-05T05:46:33.507Z,2.38
2022-11-05T05:49:12.356Z,2.40
2022-11-05T05:51:40.210Z,2.60
2022-11-05T05:54:07.650Z,2.72
2022-11-05T05:56:34.995Z,2.83
2022-11-05T05:59:02.376Z,2.75
2022-11-05T06:01:29.874Z,2.75
2022-11-05T06:03:58.468Z,2.78
2022-11-05T06:06:26.061Z,2.50
2022-11-05T06:08:53.631Z,2.72
2022-11-05T06:11:20.928Z,2.80
2022-11-05T06:13:48.283Z,2.97
2022-11-05T06:16:15.579Z,2.40
2022-11-05T06:18:42.940Z,2.78
2022-11-05T06:21:10.416Z,2.33
2022-11-05T06:23:37.932Z,3.78
2022-11-05T06:26:05.358Z,2.33
2022-11-05T06:28:34.637Z,2.67
2022-11-05T06:31:02.479Z,2.40
2022-11-05T06:33:29.868Z,2.28
2022-11-05T06:35:57.357Z,2.47
2022-11-05T06:38:24.576Z,1.80
2022-11-05T06:40:51.998Z,2.10
2022-11-05T06:43:19.432Z,2.72
2022-11-05T06:45:47.066Z,2.35
2022-11-05T06:48:14.505Z,2.10
2022-11-05T06:50:42.053Z,2.08
2022-11-05T06:53:09.720Z,3.05
2022-11-05T06:55:37.433Z,1.80
2022-11-05T06:58:04.854Z,2.33
2022-11-05T07:00:35.572Z,1.67
2022-11-05T07:03:03.028Z,2.58
2022-11-05T07:05:30.340Z,1.67
2022-11-05T07:07:57.712Z,1.83
2022-11-05T07:10:24.969Z,1.98
2022-11-05T07:12:52.410Z,1.98
2022-11-05T07:15:19.716Z,1.45
2022-11-05T07:17:47.064Z,1.90
2022-11-05T07:20:17.296Z,1.98
2022-11-05T07:26:17.734Z,1.58
2022-11-05T07:28:44.964Z,1.40
2022-11-05T07:31:12.175Z,1.70
2022-11-05T07:33:39.456Z,1.73
2022-11-05T07:36:06.664Z,1.73
2022-11-05T07:38:33.879Z,1.73
2022-11-05T07:41:01.036Z,1.98
2022-11-05T07:43:28.575Z,3.55
2022-11-05T07:45:55.755Z,2.75
2022-11-05T07:48:23.027Z,1.80
2022-11-05T07:50:50.150Z,2.03
2022-11-05T07:53:17.381Z,1.73
2022-11-05T07:55:45.992Z,1.85
2022-11-05T07:58:13.448Z,1.88
2022-11-05T08:00:40.714Z,1.83
2022-11-05T08:03:08.885Z,1.92
2022-11-05T08:05:39.375Z,2.15
2022-11-05T08:08:06.749Z,2.17
2022-11-05T08:10:34.272Z,1.80
2022-11-05T08:13:01.569Z,1.92
2022-11-05T08:15:28.743Z,1.73
2022-11-05T08:17:55.963Z,1.73
2022-11-05T08:20:23.114Z,2.42
2022-11-05T08:22:50.370Z,2.08
2022-11-05T08:25:20.227Z,1.70
2022-11-05T08:27:49.885Z,1.98
2022-11-05T08:30:22.545Z,1.95
2022-11-05T08:32:50.642Z,1.33
2022-11-05T08:35:22.373Z,1.58
2022-11-05T08:37:51.690Z,1.60
2022-11-05T08:40:18.875Z,2.05
2022-11-05T08:42:46.109Z,1.63
2022-11-05T08:45:13.247Z,1.50
2022-11-05T08:47:40.426Z,1.38
2022-11-05T08:50:17.800Z,1.75
2022-11-05T08:52:46.090Z,1.40
2022-11-05T08:55:13.742Z,1.58
2022-11-05T08:57:40.988Z,1.50
2022-11-05T09:00:08.197Z,1.85
2022-11-05T09:02:35.542Z,1.40
2022-11-05T09:05:02.864Z,1.55
2022-11-05T09:07:30.148Z,1.40
2022-11-05T09:09:57.368Z,2.25
2022-11-05T09:12:24.604Z,3.47
2022-11-05T09:14:51.842Z,1.63
2022-11-05T09:17:19.493Z,1.58
2022-11-05T09:19:46.772Z,1.50
2022-11-05T09:22:14.095Z,1.42
2022-11-05T09:24:41.330Z,1.50
2022-11-05T09:27:10.261Z,1.50
2022-11-05T09:29:37.638Z,1.77
2022-11-05T09:32:04.995Z,2.00
2022-11-05T09:34:32.227Z,1.70
2022-11-05T09:36:59.585Z,2.10
2022-11-05T09:39:27.272Z,1.50
2022-11-05T09:41:54.785Z,1.80
2022-11-05T09:44:21.927Z,1.98
2022-11-05T09:46:49.276Z,2.20
2022-11-05T09:49:16.444Z,2.13
2022-11-05T09:51:43.654Z,2.17
2022-11-05T09:54:10.804Z,1.83
2022-11-05T09:56:38.086Z,2.30
2022-11-05T09:59:05.229Z,2.20
2022-11-05T10:01:32.703Z,1.90
2022-11-05T10:04:00.093Z,2.30
2022-11-05T10:06:27.417Z,2.40
2022-11-05T10:08:54.661Z,2.20
2022-11-05T10:11:21.897Z,2.20
2022-11-05T10:13:49.170Z,2.35
2022-11-05T10:16:16.510Z,2.28
2022-11-05T10:18:43.682Z,2.00
2022-11-05T10:21:10.909Z,1.75
2022-11-05T10:23:39.724Z,2.25
2022-11-05T10:26:07.111Z,2.22
2022-11-05T10:28:34.336Z,2.25
2022-11-05T10:31:01.680Z,2.40
2022-11-05T10:33:28.850Z,2.20
2022-11-05T10:35:56.214Z,2.00
2022-11-05T10:38:23.507Z,1.60
2022-11-05T10:40:50.841Z,1.90
2022-11-05T10:43:18.128Z,1.85
2022-11-05T10:45:48.291Z,1.88
2022-11-05T10:48:15.499Z,1.23
2022-11-05T10:50:42.798Z,1.73
2022-11-05T10:53:10.409Z,1.42
2022-11-05T10:55:37.899Z,1.60
2022-11-05T10:58:05.171Z,2.08
2022-11-05T11:00:32.543Z,2.28
2022-11-05T11:03:00.093Z,2.47
2022-11-05T11:05:27.326Z,2.60
2022-11-05T11:07:54.954Z,3.20
2022-11-05T11:10:22.256Z,2.70
2022-11-05T11:12:49.934Z,3.05
2022-11-05T11:15:17.176Z,2.90
2022-11-05T11:17:44.432Z,2.75
2022-11-05T11:20:11.702Z,2.80
2022-11-05T11:22:39.032Z,3.10
2022-11-05T11:25:06.357Z,4.28
2022-11-05T11:27:33.629Z,3.72
2022-11-05T11:30:00.823Z,4.45
2022-11-05T11:32:28.179Z,4.60
2022-11-05T11:34:55.493Z,3.78
2022-11-05T11:37:22.824Z,3.40
2022-11-05T11:39:50.106Z,3.50
2022-11-05T11:42:17.386Z,2.85
2022-11-05T11:44:44.560Z,2.60
2022-11-05T11:47:11.833Z,2.90
2022-11-05T11:49:39.278Z,3.40
2022-11-05T11:52:06.598Z,2.70
2022-11-05T11:54:34.838Z,3.38
2022-11-05T11:57:02.152Z,3.17
2022-11-05T12:00:01.952Z,3.30
2022-11-05T12:02:16.838Z,3.55
2022-11-05T12:04:44.196Z,3.03
2022-11-05T12:07:11.550Z,3.05
2022-11-05T12:09:38.896Z,3.17
2022-11-05T12:12:06.145Z,2.67
2022-11-05T12:14:33.406Z,2.80
2022-11-05T12:17:00.710Z,2.90
2022-11-05T12:19:28.040Z,2.75
2022-11-05T12:21:55.367Z,2.92
2022-11-05T12:24:22.687Z,2.80
2022-11-05T12:26:50.076Z,2.97
2022-11-05T12:29:20.385Z,2.78
2022-11-05T12:31:47.700Z,3.45
2022-11-05T12:34:15.026Z,2.50
2022-11-05T12:36:42.384Z,2.83
2022-11-05T12:39:09.725Z,2.35
2022-11-05T12:41:37.205Z,3.10
2022-11-05T12:44:04.530Z,2.55
2022-11-05T12:46:31.969Z,2.60
2022-11-05T12:48:59.177Z,2.83
2022-11-05T12:51:26.444Z,2.95
2022-11-05T12:53:53.748Z,2.22
2022-11-05T12:56:21.423Z,3.30
2022-11-05T12:58:48.761Z,2.65
2022-11-05T13:01:16.270Z,2.63
2022-11-05T13:03:43.694Z,2.42
2022-11-05T13:06:11.364Z,2.40
2022-11-05T13:08:38.617Z,2.45
2022-11-05T13:11:05.909Z,2.67
2022-11-05T13:13:33.143Z,2.50
2022-11-05T13:16:00.391Z,1.80
2022-11-05T13:18:27.803Z,2.60
2022-11-05T13:20:55.177Z,2.30
2022-11-05T13:23:24.180Z,2.15
2022-11-05T13:25:51.406Z,1.90
2022-11-05T13:28:18.559Z,2.03
2022-11-05T13:30:45.777Z,2.85
2022-11-05T13:33:15.347Z,3.63
2022-11-05T13:35:42.606Z,2.45
2022-11-05T13:38:28.370Z,3.13
2022-11-05T13:40:55.663Z,2.83
2022-11-05T13:43:23.166Z,1.85
2022-11-05T13:45:50.459Z,1.70
2022-11-05T13:48:17.676Z,1.80
2022-11-05T13:50:44.859Z,2.35
2022-11-05T13:53:12.271Z,2.20
2022-11-05T13:55:39.829Z,2.85
2022-11-05T13:58:07.018Z,2.15
2022-11-05T14:00:34.321Z,2.20
2022-11-05T14:03:01.507Z,1.98
2022-11-05T14:05:28.950Z,3.00
2022-11-05T14:07:56.338Z,1.50
2022-11-05T14:10:23.556Z,2.00
2022-11-05T14:12:50.736Z,2.50
2022-11-05T14:15:17.931Z,2.47
2022-11-05T14:17:45.109Z,1.88
2022-11-05T14:20:12.365Z,2.55
2022-11-05T14:22:39.605Z,1.98
2022-11-05T14:25:06.781Z,2.17
2022-11-05T14:27:37.028Z,1.98
2022-11-05T14:30:04.506Z,2.03
2022-11-05T14:32:31.877Z,1.80
2022-11-05T14:34:59.063Z,2.63
2022-11-05T14:37:26.319Z,2.42
2022-11-05T14:39:53.572Z,2.40
2022-11-05T14:42:21.292Z,2.10
2022-11-05T14:44:48.578Z,2.13
2022-11-05T14:47:15.727Z,2.42
2022-11-05T14:49:43.185Z,2.42
2022-11-05T14:52:10.541Z,2.10
2022-11-05T14:54:37.908Z,2.03
2022-11-05T14:57:05.098Z,2.13
2022-11-05T14:59:35.434Z,1.90
2022-11-05T15:02:02.921Z,1.92
2022-11-05T15:04:30.132Z,2.10
2022-11-05T15:06:59.823Z,2.40
2022-11-05T15:09:30.748Z,3.10
2022-11-05T15:12:16.736Z,2.17
2022-11-05T15:14:48.444Z,2.38
2022-11-05T15:20:39.946Z,2.65
2022-11-05T15:27:02.494Z,4.20
2022-11-05T15:33:23.847Z,2.15
2022-11-05T15:39:29.557Z,2.55
2022-11-05T15:41:57.370Z,3.30
2022-11-05T15:44:24.830Z,2.10
2022-11-05T15:46:52.097Z,2.28
2022-11-05T15:49:19.318Z,2.17
2022-11-05T15:51:46.557Z,2.65
2022-11-05T15:54:29.576Z,1.65
2022-11-05T15:56:57.381Z,2.67
2022-11-05T15:59:24.568Z,2.22
2022-11-05T16:01:51.899Z,2.17
2022-11-05T16:04:19.230Z,2.65
2022-11-05T16:06:46.483Z,4.72
2022-11-05T16:09:13.712Z,2.83
2022-11-05T16:11:41.023Z,2.72
2022-11-05T16:14:08.226Z,1.60
2022-11-05T16:16:35.605Z,2.53
2022-11-05T16:19:02.925Z,2.30
2022-11-05T16:21:30.212Z,2.10
2022-11-05T16:23:57.589Z,2.50
2022-11-05T16:26:48.005Z,1.92
2022-11-05T16:29:13.046Z,1.88
2022-11-05T16:31:40.308Z,1.77
2022-11-05T16:34:07.609Z,2.30
2022-11-05T16:36:34.900Z,1.67
2022-11-05T16:39:02.162Z,2.05
2022-11-05T16:41:29.625Z,1.40
2022-11-05T16:43:56.973Z,2.05
2022-11-05T16:46:24.372Z,1.55
2022-11-05T16:48:51.577Z,2.95
2022-11-05T16:51:22.158Z,1.52
2022-11-05T16:53:52.015Z,1.33
2022-11-05T16:56:19.426Z,1.27
2022-11-05T16:58:46.724Z,1.63
2022-11-05T17:01:13.944Z,1.20
2022-11-05T17:03:41.246Z,2.08
2022-11-05T17:06:08.466Z,2.08
2022-11-05T17:08:35.731Z,1.98
2022-11-05T17:11:02.943Z,1.02
2022-11-05T17:13:30.715Z,1.15
2022-11-05T17:15:57.951Z,1.00
2022-11-05T17:18:26.225Z,1.45
2022-11-05T17:20:53.911Z,1.58
2022-11-05T17:23:21.220Z,1.40
2022-11-05T17:25:48.386Z,2.10
2022-11-05T17:28:16.610Z,1.50
2022-11-05T17:30:49.278Z,2.40
2022-11-05T17:33:19.563Z,2.10
2022-11-05T17:35:46.900Z,1.77
2022-11-05T17:38:14.191Z,2.42
2022-11-05T17:40:41.459Z,2.25
2022-11-05T17:43:08.902Z,2.20
2022-11-05T17:45:36.246Z,1.60
2022-11-05T17:48:03.530Z,2.30
2022-11-05T17:50:30.705Z,1.77
2022-11-05T17:52:57.988Z,2.53
2022-11-05T17:55:25.783Z,2.30
2022-11-05T17:57:53.095Z,3.00
2022-11-05T18:00:20.600Z,2.70
2022-11-05T18:02:49.772Z,3.67
2022-11-05T18:05:17.531Z,5.00
2022-11-05T18:07:44.952Z,3.70
2022-11-05T18:10:12.239Z,3.25
2022-11-05T18:12:39.498Z,4.60
2022-11-05T18:15:06.651Z,3.67
2022-11-05T18:17:33.891Z,4.22
2022-11-05T18:20:01.116Z,4.63
2022-11-05T18:22:28.416Z,4.95
2022-11-05T18:24:55.629Z,3.60
2022-11-05T18:27:27.478Z,3.50
2022-11-05T18:29:54.787Z,4.15
2022-11-05T18:32:22.146Z,4.40
2022-11-05T18:34:49.335Z,3.45
2022-11-05T18:37:16.589Z,2.78
2022-11-05T18:39:43.950Z,3.40
2022-11-05T18:42:11.111Z,3.05
2022-11-05T18:44:39.678Z,3.00
2022-11-05T18:47:07.022Z,2.92
2022-11-05T18:49:34.402Z,3.70
2022-11-05T18:52:01.746Z,4.15
2022-11-05T18:54:29.030Z,5.97
2022-11-05T18:56:56.196Z,4.85
2022-11-05T18:59:37.617Z,5.00
2022-11-05T19:02:05.923Z,16.38
2022-11-05T19:04:33.532Z,7.22
2022-11-05T19:07:04.839Z,5.78
2022-11-05T19:09:32.953Z,5.18
2022-11-05T19:12:00.142Z,4.85
2022-11-05T19:14:27.409Z,4.72
2022-11-05T19:16:54.728Z,4.55
2022-11-05T19:19:23.214Z,5.40
2022-11-05T19:21:50.470Z,6.10
2022-11-05T19:24:17.761Z,5.63
2022-11-05T19:26:44.991Z,5.68
2022-11-05T19:29:12.362Z,5.53
2022-11-05T19:31:39.708Z,5.18
2022-11-05T19:34:07.103Z,4.82
2022-11-05T19:36:34.409Z,4.28
2022-11-05T19:39:01.597Z,4.57
2022-11-05T19:41:28.923Z,3.63
2022-11-05T19:43:57.984Z,4.85
2022-11-05T19:46:25.294Z,6.18
2022-11-05T19:48:52.448Z,7.00
2022-11-05T19:51:19.660Z,7.25
2022-11-05T19:53:46.891Z,6.68
2022-11-05T19:56:14.097Z,6.82
2022-11-05T19:58:41.238Z,7.30
2022-11-05T20:01:08.483Z,7.47
2022-11-05T20:03:37.620Z,9.35
2022-11-05T20:06:04.931Z,10.43
2022-11-05T20:08:32.355Z,8.90
2022-11-05T20:10:59.625Z,8.65
2022-11-05T20:13:26.860Z,10.30
2022-11-05T20:15:54.188Z,9.07
2022-11-05T20:18:21.369Z,9.57
2022-11-05T20:20:48.682Z,9.02
2022-11-05T20:23:15.925Z,7.43
2022-11-05T20:25:43.370Z,7.75
2022-11-05T20:28:11.153Z,9.82
2022-11-05T20:30:38.675Z,11.10
2022-11-05T20:33:05.874Z,7.95
2022-11-05T20:35:33.113Z,8.45
2022-11-05T20:38:00.365Z,9.73
2022-11-05T20:40:27.591Z,7.93
2022-11-05T20:42:57.159Z,7.50
2022-11-05T20:45:24.614Z,5.68
2022-11-05T20:47:51.801Z,5.93
2022-11-05T20:50:19.029Z,5.63
2022-11-05T20:52:46.212Z,5.85
2022-11-05T20:55:13.420Z,5.95
2022-11-05T20:57:40.631Z,5.05
2022-11-05T21:00:07.965Z,4.90
2022-11-05T21:02:35.418Z,4.72
2022-11-05T21:05:02.937Z,3.60
2022-11-05T21:07:30.146Z,5.53
2022-11-05T21:09:57.362Z,4.00
2022-11-05T21:12:24.522Z,3.88
2022-11-05T21:14:52.385Z,4.60
2022-11-05T21:17:19.556Z,3.55
2022-11-05T21:19:47.086Z,3.95
2022-11-05T21:22:15.509Z,4.22
2022-11-05T21:24:43.458Z,4.20
2022-11-05T21:27:10.717Z,3.92
2022-11-05T21:29:37.935Z,4.45
2022-11-05T21:32:05.127Z,4.28
2022-11-05T21:34:32.446Z,4.07
2022-11-05T21:36:59.726Z,4.60
2022-11-05T21:39:27.806Z,5.13
2022-11-05T21:41:54.984Z,4.40
2022-11-05T21:44:22.286Z,4.68
2022-11-05T21:46:49.484Z,6.95
2022-11-05T21:49:16.687Z,10.43
2022-11-05T21:52:02.572Z,5.40
2022-11-05T21:54:48.572Z,5.82
2022-11-05T21:57:34.677Z,6.47
2022-11-05T22:00:02.028Z,6.40
2022-11-05T22:02:31.596Z,8.02
2022-11-05T22:05:00.079Z,10.48
2022-11-05T22:07:27.351Z,12.68
2022-11-05T22:09:54.569Z,9.50
2022-11-05T22:12:21.834Z,5.32
2022-11-05T22:14:49.132Z,4.70
2022-11-05T22:17:16.284Z,4.00
2022-11-05T22:19:43.530Z,3.95
2022-11-05T22:22:10.700Z,3.40
2022-11-05T22:24:37.905Z,4.70
2022-11-05T22:27:05.088Z,5.22
2022-11-05T22:29:32.307Z,4.47
2022-11-05T22:31:59.561Z,5.30
2022-11-05T22:34:26.767Z,2.65
2022-11-05T22:36:53.960Z,3.38
2022-11-05T22:39:21.207Z,5.00
2022-11-05T22:41:48.414Z,2.80
2022-11-05T22:44:16.851Z,3.03
2022-11-05T22:46:44.040Z,4.35
2022-11-05T22:49:11.396Z,5.15
2022-11-05T22:51:38.539Z,3.47
2022-11-05T22:54:05.849Z,6.18
2022-11-05T22:56:33.001Z,3.20
2022-11-05T22:59:00.257Z,4.15
2022-11-05T23:01:27.601Z,5.60
2022-11-05T23:03:54.935Z,4.22
2022-11-05T23:06:40.934Z,3.08
2022-11-05T23:09:27.012Z,3.45
2022-11-05T23:11:54.299Z,3.30
2022-11-05T23:14:21.782Z,1.65
2022-11-05T23:17:08.042Z,1.38
2022-11-05T23:19:54.295Z,1.20
2022-11-05T23:22:40.521Z,1.67
2022-11-05T23:25:07.829Z,1.58
2022-11-05T23:27:34.988Z,1.67
2022-11-05T23:30:02.199Z,1.60
2022-11-05T23:32:29.387Z,2.22
2022-11-05T23:34:56.869Z,1.70
2022-11-05T23:37:42.977Z,1.75
2022-11-05T23:40:10.168Z,1.63
2022-11-05T23:42:56.275Z,1.90
2022-11-05T23:45:55.663Z,1.50
2022-11-05T23:48:22.943Z,1.75
2022-11-05T23:50:50.125Z,1.77
2022-11-05T23:53:17.506Z,1.20
2022-11-05T23:55:44.792Z,2.22
2022-11-05T23:58:12.416Z,1.30
